Time;durP1;ratioP1;P1;durP2;ratioP2;P2;SDS_P1;SDS_P2;PMS_P1;PMS_P2;Temp;Humidity;BMP_temperature;BMP_pressure;BME280_temperature;BME280_humidity;BME280_pressure;Samples;Min_cycle;Max_cycle;Signal;HPM_P1;HPM_P2
2022/05/17 00:02:02;;;;;;;14.50;6.03;;;16.90;99.90;;;;;;5105322;27;20437;-53
2022/05/17 00:04:28;;;;;;;8.87;6.20;;;16.80;99.90;;;;;;5103192;28;20456;-53
2022/05/17 00:06:53;;;;;;;11.60;6.80;;;16.80;99.90;;;;;;5105839;28;20782;-53
2022/05/17 00:09:19;;;;;;;10.43;6.50;;;16.80;99.90;;;;;;5098511;28;20201;-53
2022/05/17 00:11:47;;;;;;;12.97;6.70;;;16.80;99.90;;;;;;5099178;27;20280;-53
2022/05/17 00:14:13;;;;;;;8.90;6.07;;;16.80;99.90;;;;;;5104108;28;20188;-53
2022/05/17 00:16:40;;;;;;;16.27;7.10;;;16.70;99.90;;;;;;5102299;28;20502;-53
2022/05/17 00:19:07;;;;;;;7.90;5.87;;;16.60;99.90;;;;;;5106055;28;20549;-53
2022/05/17 00:21:33;;;;;;;9.37;6.53;;;16.60;99.90;;;;;;5090658;28;20439;-52
2022/05/17 00:23:58;;;;;;;12.73;7.40;;;16.70;99.90;;;;;;5104420;27;20437;-52
2022/05/17 00:26:25;;;;;;;8.20;6.30;;;16.70;99.90;;;;;;5101509;27;20184;-52
2022/05/17 00:28:51;;;;;;;9.33;6.37;;;16.70;99.90;;;;;;5101292;27;20180;-52
2022/05/17 00:31:17;;;;;;;7.53;5.90;;;16.60;99.90;;;;;;5104371;27;20438;-52
2022/05/17 00:33:42;;;;;;;7.80;5.37;;;16.50;1.00;;;;;;5101530;28;20291;-52
2022/05/17 00:36:08;;;;;;;9.97;5.60;;;16.50;99.90;;;;;;5099300;28;20192;-53
2022/05/17 00:38:34;;;;;;;8.27;5.63;;;16.50;99.90;;;;;;5101965;28;20217;-52
2022/05/17 00:41:00;;;;;;;9.57;5.57;;;16.40;99.90;;;;;;5105234;28;20820;-52
2022/05/17 00:44:42;;;;;;;9.17;5.97;;;16.30;99.90;;;;;;5104268;28;20263;-52
2022/05/17 00:46:26;;;;;;;8.03;4.73;;;16.20;1.00;;;;;;5105837;28;20245;-52
2022/05/17 00:48:53;;;;;;;9.60;5.40;;;16.20;99.90;;;;;;5107129;28;20465;-52
2022/05/17 00:51:20;;;;;;;9.83;6.03;;;16.20;99.90;;;;;;5109103;28;20818;-52
2022/05/17 00:53:46;;;;;;;10.07;5.33;;;16.20;1.00;;;;;;5106832;27;20438;-52
2022/05/17 00:56:19;;;;;;;12.77;5.30;;;16.10;1.00;;;;;;5104446;28;20439;-52
2022/05/17 00:58:50;;;;;;;7.80;4.77;;;16.10;1.00;;;;;;5103503;28;21023;-52
2022/05/17 01:01:20;;;;;;;5.67;4.70;;;16.10;1.00;;;;;;5108789;28;20445;-53
2022/05/17 01:04:00;;;;;;;7.80;5.23;;;16.10;1.00;;;;;;5091293;28;20928;-53
2022/05/17 01:06:30;;;;;;;6.57;5.03;;;16.00;1.00;;;;;;5099903;28;20469;-52
2022/05/17 01:08:55;;;;;;;8.63;4.63;;;16.00;1.00;;;;;;5106115;28;20438;-52
2022/05/17 01:11:21;;;;;;;8.10;5.37;;;16.10;1.00;;;;;;5100600;27;20829;-52
2022/05/17 01:16:32;;;;;;;9.10;5.30;;;16.10;1.00;;;;;;5101222;28;20199;-52
2022/05/17 01:18:58;;;;;;;11.03;4.77;;;16.10;1.00;;;;;;5104075;28;20528;-52
2022/05/17 01:21:24;;;;;;;7.80;4.77;;;16.10;1.00;;;;;;5101503;28;20900;-52
2022/05/17 01:23:49;;;;;;;9.23;4.80;;;16.10;99.90;;;;;;5099389;28;20233;-52
2022/05/17 01:26:21;;;;;;;8.70;4.87;;;16.20;99.90;;;;;;5107525;28;20430;-52
2022/05/17 01:28:48;;;;;;;8.77;5.23;;;16.10;1.00;;;;;;5104762;27;20188;-52
2022/05/17 01:31:15;;;;;;;8.90;5.13;;;16.10;99.90;;;;;;5098501;28;20553;-53
2022/05/17 01:33:41;;;;;;;9.80;6.17;;;16.10;1.00;;;;;;5103602;28;20449;-53
2022/05/17 01:36:10;;;;;;;9.63;5.03;;;16.10;1.00;;;;;;5108419;28;20437;-52
2022/05/17 01:38:36;;;;;;;8.13;5.93;;;16.00;1.00;;;;;;5106720;27;20928;-52
2022/05/17 01:41:03;;;;;;;7.40;4.90;;;16.00;1.00;;;;;;5088764;28;20447;-52
2022/05/17 01:43:28;;;;;;;7.63;4.70;;;16.00;99.90;;;;;;5104047;28;20438;-52
2022/05/17 01:45:54;;;;;;;6.40;4.90;;;16.20;99.90;;;;;;5102648;28;20532;-52
2022/05/17 01:48:20;;;;;;;7.70;5.40;;;16.20;99.90;;;;;;5102893;28;20242;-52
2022/05/17 01:50:46;;;;;;;6.37;4.77;;;16.30;99.90;;;;;;5103312;28;20208;-52
2022/05/17 01:53:12;;;;;;;6.40;4.70;;;16.30;99.90;;;;;;5095162;28;20203;-53
2022/05/17 01:55:38;;;;;;;10.53;5.73;;;16.40;99.90;;;;;;5104254;28;20205;-53
2022/05/17 01:58:05;;;;;;;10.37;5.70;;;16.50;99.90;;;;;;5107382;28;20892;-53
2022/05/17 02:00:31;;;;;;;6.70;4.53;;;16.50;99.90;;;;;;5103814;28;20469;-52
2022/05/17 02:02:57;;;;;;;9.87;5.90;;;16.50;99.90;;;;;;5105197;28;20507;-53
2022/05/17 02:05:24;;;;;;;9.70;6.40;;;16.50;99.90;;;;;;5101060;28;20907;-53
2022/05/17 02:07:50;;;;;;;10.53;8.40;;;16.50;99.90;;;;;;5103929;28;20456;-52
2022/05/17 02:10:18;;;;;;;10.47;7.03;;;16.50;99.90;;;;;;5099170;28;20454;-53
2022/05/17 02:12:43;;;;;;;10.87;7.07;;;16.40;99.90;;;;;;5099273;28;20265;-52
2022/05/17 02:15:09;;;;;;;19.23;12.40;;;16.40;99.90;;;;;;5102631;28;20455;-53
2022/05/17 02:17:35;;;;;;;21.03;12.10;;;16.40;1.00;;;;;;5104920;28;20216;-53
2022/05/17 02:20:02;;;;;;;29.17;14.10;;;16.20;1.00;;;;;;5096533;28;20493;-53
2022/05/17 02:22:27;;;;;;;20.20;12.30;;;16.10;1.00;;;;;;5105221;27;20299;-53
2022/05/17 02:24:53;;;;;;;18.17;11.43;;;16.00;1.00;;;;;;5100935;28;20517;-52
2022/05/17 02:27:19;;;;;;;16.00;11.30;;;15.90;67.40;;;;;;5107784;28;20188;-53
2022/05/17 02:29:44;;;;;;;18.83;12.60;;;15.70;99.90;;;;;;5098851;28;20254;-53
2022/05/17 02:32:11;;;;;;;23.23;12.20;;;15.50;99.90;;;;;;5106070;28;20196;-53
2022/05/17 02:34:37;;;;;;;15.43;11.07;;;15.50;99.90;;;;;;5105776;28;20192;-53
2022/05/17 02:37:06;;;;;;;18.23;11.50;;;15.40;99.90;;;;;;5100115;28;20519;-53
2022/05/17 02:39:31;;;;;;;18.77;10.90;;;15.40;99.90;;;;;;5105612;28;20201;-52
2022/05/17 02:41:57;;;;;;;21.13;11.83;;;15.40;99.90;;;;;;5105647;27;20788;-53
2022/05/17 02:44:23;;;;;;;12.00;8.43;;;15.50;20.70;;;;;;5102727;28;20200;-53
2022/05/17 02:46:49;;;;;;;15.73;10.60;;;15.60;1.00;;;;;;5103359;28;20566;-53
2022/05/17 02:49:14;;;;;;;20.20;10.70;;;15.70;1.00;;;;;;5101506;28;20220;-52
2022/05/17 02:51:40;;;;;;;14.83;9.10;;;15.70;1.00;;;;;;5102296;28;20282;-52
2022/05/17 02:54:07;;;;;;;16.40;11.07;;;15.80;1.00;;;;;;5106652;28;20188;-52
2022/05/17 02:56:33;;;;;;;10.17;8.17;;;15.90;1.00;;;;;;5087655;28;20844;-52
2022/05/17 02:58:59;;;;;;;17.00;10.77;;;15.90;1.00;;;;;;5082581;28;21045;-52
2022/05/17 03:01:24;;;;;;;14.57;9.70;;;15.90;1.00;;;;;;5101677;28;20478;-53
2022/05/17 03:03:50;;;;;;;14.00;8.83;;;15.80;1.00;;;;;;5103075;28;20199;-53
2022/05/17 03:06:16;;;;;;;10.30;8.07;;;15.70;1.00;;;;;;5109043;28;20896;-53
2022/05/17 03:08:41;;;;;;;12.83;8.30;;;15.70;1.00;;;;;;5087954;28;20211;-53
2022/05/17 03:11:08;;;;;;;18.00;10.30;;;15.90;1.00;;;;;;5103274;28;20283;-52
2022/05/17 03:13:34;;;;;;;9.43;7.07;;;16.00;1.00;;;;;;5096825;28;20565;-52
2022/05/17 03:16:00;;;;;;;12.43;7.73;;;16.10;1.00;;;;;;5103091;28;20453;-52
2022/05/17 03:18:25;;;;;;;9.90;7.97;;;16.20;1.00;;;;;;5102476;28;20487;-53
2022/05/17 03:20:51;;;;;;;8.43;7.00;;;16.20;1.00;;;;;;5099374;28;20321;-53
2022/05/17 03:23:17;;;;;;;14.43;8.03;;;16.20;1.00;;;;;;5101990;28;20909;-53
2022/05/17 03:25:42;;;;;;;18.37;11.20;;;16.10;1.00;;;;;;5104640;28;20610;-52
2022/05/17 03:28:11;;;;;;;12.43;8.20;;;16.10;1.00;;;;;;5105634;28;20206;-53
2022/05/17 03:30:38;;;;;;;11.57;8.50;;;15.90;1.00;;;;;;5102808;28;20291;-53
2022/05/17 03:33:04;;;;;;;16.00;11.73;;;15.90;1.00;;;;;;5095403;28;20448;-53
2022/05/17 03:35:29;;;;;;;15.60;9.87;;;16.00;1.00;;;;;;5106132;28;20621;-53
2022/05/17 03:37:55;;;;;;;15.90;9.93;;;15.90;1.00;;;;;;5105943;28;20457;-53
2022/05/17 03:40:20;;;;;;;18.03;12.00;;;15.90;1.00;;;;;;5099895;28;20184;-52
2022/05/17 03:42:46;;;;;;;20.53;13.33;;;15.90;1.00;;;;;;5107148;28;20256;-54
2022/05/17 03:45:12;;;;;;;16.53;9.80;;;15.90;1.00;;;;;;5106812;28;20192;-53
2022/05/17 03:47:38;;;;;;;17.67;12.63;;;15.80;1.00;;;;;;5100278;28;20651;-53
2022/05/17 03:50:05;;;;;;;19.50;14.13;;;15.90;1.00;;;;;;5101449;28;20564;-53
2022/05/17 03:52:31;;;;;;;11.97;9.00;;;15.90;1.00;;;;;;5101681;28;21020;-53
2022/05/17 03:54:59;;;;;;;14.47;11.07;;;15.90;1.00;;;;;;5109776;28;20462;-52
2022/05/17 03:57:26;;;;;;;20.90;12.40;;;16.00;1.00;;;;;;5110266;28;20464;-53
2022/05/17 03:59:52;;;;;;;15.47;11.60;;;16.00;1.00;;;;;;5107715;28;20544;-53
2022/05/17 04:02:18;;;;;;;18.90;12.20;;;16.00;1.00;;;;;;5092472;28;20436;-53
2022/05/17 04:04:43;;;;;;;17.97;12.33;;;15.90;1.00;;;;;;5106512;28;20437;-53
2022/05/17 04:07:09;;;;;;;18.50;10.27;;;15.80;1.00;;;;;;5107988;28;20351;-53
2022/05/17 04:09:34;;;;;;;14.63;10.83;;;15.80;1.00;;;;;;5111512;28;20552;-53
2022/05/17 04:12:01;;;;;;;21.80;12.00;;;15.70;1.00;;;;;;5106166;28;20196;-53
2022/05/17 04:14:27;;;;;;;23.00;10.87;;;15.80;1.00;;;;;;5107248;28;20218;-54
2022/05/17 04:16:52;;;;;;;12.17;9.00;;;15.80;1.00;;;;;;5108210;28;20439;-53
2022/05/17 04:19:18;;;;;;;17.90;10.87;;;15.90;1.00;;;;;;5108929;28;20224;-53
2022/05/17 04:21:44;;;;;;;12.83;9.10;;;16.00;1.00;;;;;;5105038;28;20200;-53
2022/05/17 04:24:10;;;;;;;13.73;9.43;;;16.10;1.00;;;;;;5105014;28;20404;-53
2022/05/17 04:26:36;;;;;;;17.93;11.27;;;16.20;1.00;;;;;;5106484;28;20546;-53
2022/05/17 04:29:03;;;;;;;18.63;14.07;;;16.20;1.00;;;;;;5104418;28;20519;-53
2022/05/17 04:31:29;;;;;;;23.37;16.47;;;16.20;1.00;;;;;;5101504;28;20443;-53
2022/05/17 04:33:55;;;;;;;21.83;15.27;;;16.10;1.00;;;;;;5107372;28;20776;-53
2022/05/17 04:36:21;;;;;;;18.07;13.27;;;16.00;1.00;;;;;;5100230;28;20430;-53
2022/05/17 04:38:47;;;;;;;23.20;15.00;;;15.80;1.00;;;;;;5102293;28;20231;-57
2022/05/17 04:41:12;;;;;;;25.50;15.60;;;15.70;6.50;;;;;;5103367;28;20435;-53
2022/05/17 04:43:38;;;;;;;21.73;13.63;;;15.60;99.90;;;;;;5100984;28;20200;-53
2022/05/17 04:46:04;;;;;;;19.50;12.97;;;15.60;99.90;;;;;;5102917;27;20200;-53
2022/05/17 04:48:30;;;;;;;23.80;15.97;;;15.60;62.20;;;;;;5103804;28;20369;-53
2022/05/17 04:50:56;;;;;;;31.57;17.23;;;15.70;27.90;;;;;;5092037;28;20524;-53
2022/05/17 04:53:22;;;;;;;22.10;13.77;;;15.80;99.90;;;;;;5105897;28;20470;-53
2022/05/17 04:55:48;;;;;;;24.30;16.13;;;15.80;99.90;;;;;;5103868;27;20222;-53
2022/05/17 04:58:13;;;;;;;24.80;15.80;;;15.80;76.50;;;;;;5103817;28;20224;-53
2022/05/17 05:00:39;;;;;;;19.40;12.20;;;15.80;51.70;;;;;;5104537;28;20693;-53
2022/05/17 05:03:05;;;;;;;17.43;10.40;;;15.90;28.40;;;;;;5107055;28;20196;-52
2022/05/17 05:05:30;;;;;;;21.97;13.80;;;15.90;16.90;;;;;;5107502;28;20231;-53
2022/05/17 05:07:56;;;;;;;14.80;9.77;;;16.00;1.00;;;;;;5106264;28;20973;-52
2022/05/17 05:10:22;;;;;;;20.63;12.50;;;16.10;1.00;;;;;;5106830;28;20205;-53
2022/05/17 05:12:48;;;;;;;12.20;9.10;;;16.30;1.00;;;;;;5103280;28;20207;-57
2022/05/17 05:15:14;;;;;;;14.37;11.17;;;16.40;1.00;;;;;;5103458;28;20486;-53
2022/05/17 05:17:40;;;;;;;20.20;13.17;;;16.40;1.00;;;;;;5099112;28;20966;-53
2022/05/17 05:20:11;;;;;;;18.33;12.30;;;16.40;1.00;;;;;;5107065;28;20997;-52
2022/05/17 05:22:37;;;;;;;13.07;8.17;;;16.30;1.00;;;;;;5108940;28;20480;-52
2022/05/17 05:25:04;;;;;;;15.67;11.03;;;16.20;1.00;;;;;;5104228;28;20912;-53
2022/05/17 05:27:35;;;;;;;17.70;11.73;;;16.20;1.00;;;;;;5109723;28;20510;-53
2022/05/17 05:30:02;;;;;;;29.37;16.23;;;16.20;1.00;;;;;;5105583;28;20455;-53
2022/05/17 05:32:27;;;;;;;16.93;10.40;;;16.10;1.00;;;;;;5092940;28;20441;-53
2022/05/17 05:34:53;;;;;;;20.17;11.30;;;16.10;1.00;;;;;;5106189;28;20438;-53
2022/05/17 05:37:19;;;;;;;16.00;10.30;;;16.20;1.00;;;;;;5106171;28;20269;-53
2022/05/17 05:39:44;;;;;;;21.40;12.13;;;16.30;1.00;;;;;;5107783;28;20192;-53
2022/05/17 05:42:10;;;;;;;24.17;13.53;;;16.40;1.00;;;;;;5100118;28;20719;-53
2022/05/17 05:44:36;;;;;;;23.83;11.50;;;16.40;1.00;;;;;;5107434;28;20196;-53
2022/05/17 05:47:01;;;;;;;43.97;16.70;;;16.40;1.00;;;;;;5100338;27;20228;-53
2022/05/17 05:49:27;;;;;;;49.00;16.83;;;16.40;1.00;;;;;;5106026;28;20245;-52
2022/05/17 05:51:53;;;;;;;35.70;16.17;;;16.30;1.00;;;;;;5103033;27;20197;-53
2022/05/17 05:54:18;;;;;;;27.17;12.43;;;16.20;1.00;;;;;;5106442;28;20987;-53
2022/05/17 05:56:44;;;;;;;27.83;15.37;;;16.10;49.10;;;;;;5102770;28;20205;-53
2022/05/17 05:59:10;;;;;;;20.20;11.83;;;16.10;16.30;;;;;;5104546;28;20220;-52
2022/05/17 06:01:35;;;;;;;27.43;11.07;;;16.20;1.00;;;;;;5106862;28;20250;-52
2022/05/17 06:04:01;;;;;;;29.03;12.20;;;16.30;1.00;;;;;;5107502;28;20189;-53
2022/05/17 06:06:27;;;;;;;17.13;10.23;;;16.40;1.00;;;;;;5107433;28;20211;-53
2022/05/17 06:08:53;;;;;;;23.20;15.37;;;16.40;1.00;;;;;;5102786;28;20207;-53
2022/05/17 06:11:19;;;;;;;24.10;16.23;;;16.40;1.00;;;;;;5105259;28;20290;-55
2022/05/17 06:13:44;;;;;;;16.67;10.13;;;16.40;1.00;;;;;;5105793;28;20541;-53
2022/05/17 06:16:10;;;;;;;19.03;10.60;;;16.40;1.00;;;;;;5105029;28;20197;-53
2022/05/17 06:18:35;;;;;;;24.57;16.20;;;16.30;1.00;;;;;;5107346;28;20235;-53
2022/05/17 06:21:02;;;;;;;29.83;17.77;;;16.40;1.00;;;;;;5106345;27;20248;-54
2022/05/17 06:23:28;;;;;;;20.73;14.47;;;16.30;42.20;;;;;;5107561;27;20220;-54
2022/05/17 06:25:54;;;;;;;20.80;15.00;;;16.20;99.90;;;;;;5095786;28;20932;-53
2022/05/17 06:28:20;;;;;;;21.73;16.07;;;16.20;76.70;;;;;;5101106;27;20944;-54
2022/05/17 06:30:45;;;;;;;22.63;14.90;;;16.20;99.90;;;;;;5106124;28;20677;-53
2022/05/17 06:33:13;;;;;;;20.13;13.30;;;16.20;99.90;;;;;;5106503;28;20237;-53
2022/05/17 06:35:39;;;;;;;17.23;12.43;;;16.20;99.90;;;;;;5102711;28;20559;-53
2022/05/17 06:38:05;;;;;;;23.23;15.33;;;16.20;99.90;;;;;;5105070;28;20465;-53
2022/05/17 06:40:32;;;;;;;24.33;16.30;;;16.20;99.90;;;;;;5105677;28;20466;-53
2022/05/17 06:42:58;;;;;;;20.60;13.40;;;16.20;99.90;;;;;;5105765;28;20418;-53
2022/05/17 06:45:23;;;;;;;25.73;15.87;;;16.20;99.90;;;;;;5105966;28;20804;-53
2022/05/17 06:47:49;;;;;;;22.63;15.03;;;16.20;99.90;;;;;;5097363;28;20200;-53
2022/05/17 06:50:14;;;;;;;23.07;15.93;;;16.20;99.90;;;;;;5085284;28;20245;-53
2022/05/17 06:52:40;;;;;;;22.30;15.97;;;16.30;99.90;;;;;;5099955;28;20227;-54
2022/05/17 06:55:06;;;;;;;16.47;11.03;;;16.30;99.90;;;;;;5103239;28;20204;-53
2022/05/17 06:57:32;;;;;;;21.30;14.80;;;16.30;99.90;;;;;;5103144;28;20991;-53
2022/05/17 06:59:58;;;;;;;16.67;9.90;;;16.30;99.90;;;;;;5105821;28;20470;-53
2022/05/17 07:02:24;;;;;;;23.83;15.93;;;16.40;99.90;;;;;;5107559;28;20239;-54
2022/05/17 07:04:49;;;;;;;22.73;13.40;;;16.50;83.60;;;;;;5105074;28;20727;-57
2022/05/17 07:07:15;;;;;;;24.87;15.30;;;16.50;98.50;;;;;;5102025;28;20201;-53
2022/05/17 07:09:40;;;;;;;22.00;15.40;;;16.50;94.40;;;;;;5104396;28;20261;-52
2022/05/17 07:14:51;;;;;;;19.97;13.03;;;16.40;99.90;;;;;;5104105;28;20685;-53
2022/05/17 07:17:20;;;;;;;26.60;15.83;;;16.50;99.90;;;;;;5103806;28;20457;-52
2022/05/17 07:19:46;;;;;;;22.23;13.10;;;16.60;99.90;;;;;;5099120;28;20481;-52
2022/05/17 07:22:12;;;;;;;18.23;11.13;;;16.70;93.70;;;;;;5102854;28;20437;-52
2022/05/17 07:24:40;;;;;;;26.00;16.70;;;16.90;1.00;;;;;;5104787;28;20433;-52
2022/05/17 07:27:06;;;;;;;24.73;16.73;;;17.10;1.00;;;;;;5101737;28;20197;-52
2022/05/17 07:29:32;;;;;;;26.97;17.10;;;17.20;1.00;;;;;;5102352;28;20462;-52
2022/05/17 07:31:58;;;;;;;25.97;18.00;;;17.30;1.00;;;;;;5102446;28;20262;-52
2022/05/17 07:34:24;;;;;;;25.73;16.27;;;17.40;1.00;;;;;;5101686;28;21011;-53
2022/05/17 07:36:49;;;;;;;20.47;12.13;;;17.50;1.00;;;;;;5100649;28;21313;-54
2022/05/17 07:39:16;;;;;;;26.17;16.50;;;17.50;1.00;;;;;;5100325;28;20537;-54
2022/05/17 07:41:42;;;;;;;22.20;15.30;;;17.50;1.00;;;;;;5085724;28;20245;-53
2022/05/17 07:44:09;;;;;;;25.03;15.40;;;17.50;1.00;;;;;;5098798;28;20537;-53
2022/05/17 07:46:34;;;;;;;19.47;11.60;;;17.50;1.00;;;;;;5100030;28;20521;-53
2022/05/17 07:49:00;;;;;;;22.37;14.90;;;17.70;1.00;;;;;;5098313;28;20545;-53
2022/05/17 07:51:27;;;;;;;25.40;16.07;;;17.80;1.00;;;;;;5085331;28;20185;-53
2022/05/17 07:53:53;;;;;;;25.77;15.00;;;17.90;1.00;;;;;;5099479;28;20451;-53
2022/05/17 07:56:19;;;;;;;20.60;13.67;;;18.00;1.00;;;;;;5107362;28;20430;-53
2022/05/17 07:58:44;;;;;;;22.93;16.27;;;18.00;1.00;;;;;;5097583;28;20497;-52
2022/05/17 08:01:10;;;;;;;21.73;14.60;;;18.10;1.00;;;;;;5105779;28;20416;-53
2022/05/17 08:03:35;;;;;;;22.40;15.30;;;18.30;1.00;;;;;;5083191;28;20746;-52
2022/05/17 08:06:01;;;;;;;21.40;14.10;;;18.40;1.00;;;;;;5104297;28;20192;-56
2022/05/17 08:08:27;;;;;;;18.73;11.20;;;18.30;1.00;;;;;;5105000;28;20200;-53
2022/05/17 08:10:54;;;;;;;21.23;13.60;;;18.30;1.00;;;;;;5102794;28;20669;-52
2022/05/17 08:13:21;;;;;;;20.87;12.73;;;18.20;1.00;;;;;;5103456;28;20495;-53
2022/05/17 08:15:48;;;;;;;24.83;15.17;;;18.20;1.00;;;;;;5105176;28;20963;-52
2022/05/17 08:18:15;;;;;;;22.87;14.73;;;18.30;1.00;;;;;;5099962;28;21015;-53
2022/05/17 08:20:41;;;;;;;19.30;13.13;;;18.50;1.00;;;;;;5107353;28;20476;-53
2022/05/17 08:23:06;;;;;;;24.00;14.37;;;19.00;1.00;;;;;;5106950;27;20556;-52
2022/05/17 08:28:17;;;;;;;23.43;14.20;;;19.30;1.00;;;;;;5103373;28;20257;-52
2022/05/17 08:30:43;;;;;;;18.70;13.10;;;19.30;1.00;;;;;;5096756;28;20488;-52
2022/05/17 08:33:19;;;;;;;19.13;12.40;;;19.20;1.00;;;;;;5107741;28;20197;-53
2022/05/17 08:35:54;;;;;;;14.83;11.40;;;18.90;1.00;;;;;;5107561;28;20947;-53
2022/05/17 08:38:21;;;;;;;16.20;12.10;;;18.60;1.00;;;;;;5105538;28;20474;-53
2022/05/17 08:40:53;;;;;;;16.27;10.40;;;18.60;1.00;;;;;;5101777;28;20811;-53
2022/05/17 08:43:36;;;;;;;15.73;10.37;;;18.80;1.00;;;;;;5102738;27;20426;-52
2022/05/17 08:46:22;;;;;;;13.70;9.93;;;19.30;1.00;;;;;;5104875;28;20430;-53
2022/05/17 08:49:13;;;;;;;10.80;8.50;;;19.70;1.00;;;;;;5104341;28;20441;-52
2022/05/17 08:51:48;;;;;;;8.43;7.27;;;20.00;99.90;;;;;;5106862;28;20503;-53
2022/05/17 08:54:17;;;;;;;7.77;6.73;;;20.60;1.00;;;;;;5100753;28;20841;-52
2022/05/17 08:56:56;;;;;;;9.57;7.20;;;21.20;99.90;;;;;;5102901;28;20445;-53
2022/05/17 08:59:23;;;;;;;9.17;6.83;;;21.50;99.90;;;;;;5107808;28;20525;-52
2022/05/17 09:02:01;;;;;;;6.37;5.77;;;21.50;99.90;;;;;;5103660;28;20434;-52
2022/05/17 09:04:36;;;;;;;7.60;6.83;;;21.50;99.90;;;;;;5107307;28;20452;-52
2022/05/17 09:07:24;;;;;;;9.80;6.93;;;21.40;99.90;;;;;;5102188;28;21279;-52
2022/05/17 09:10:14;;;;;;;8.03;6.37;;;21.20;99.90;;;;;;5103652;28;20830;-52
2022/05/17 09:12:49;;;;;;;10.30;7.43;;;20.70;99.90;;;;;;5104817;27;21009;-54
2022/05/17 09:15:16;;;;;;;9.93;8.40;;;20.30;99.90;;;;;;5099220;28;20437;-53
2022/05/17 09:17:43;;;;;;;9.53;8.43;;;20.10;99.90;;;;;;5102397;27;20478;-53
2022/05/17 09:20:13;;;;;;;9.63;8.20;;;20.10;99.90;;;;;;5103764;28;20528;-53
2022/05/17 09:22:39;;;;;;;9.70;8.10;;;20.40;99.90;;;;;;5108975;28;20935;-53
2022/05/17 09:25:47;;;;;;;10.33;8.47;;;20.70;99.90;;;;;;5100690;28;20430;-53
2022/05/17 09:28:21;;;;;;;8.03;7.23;;;21.00;99.90;;;;;;5089867;28;20201;-53
2022/05/17 09:30:47;;;;;;;9.17;8.10;;;21.10;99.90;;;;;;5099536;28;20522;-53
2022/05/17 09:33:19;;;;;;;9.03;7.77;;;21.30;99.90;;;;;;5102113;28;21050;-53
2022/05/17 09:36:05;;;;;;;8.93;7.70;;;21.40;99.90;;;;;;5107973;28;20193;-53
2022/05/17 09:38:38;;;;;;;14.63;8.93;;;21.30;99.90;;;;;;5106399;28;20552;-53
2022/05/17 09:41:11;;;;;;;11.13;7.93;;;21.40;99.90;;;;;;5108534;28;20913;-53
2022/05/17 09:43:39;;;;;;;10.53;7.83;;;21.60;99.90;;;;;;5101730;28;20484;-53
2022/05/17 09:46:14;;;;;;;8.20;7.30;;;21.60;99.90;;;;;;5094024;28;20423;-53
2022/05/17 09:54:46;;;;;;;10.07;6.37;;;21.80;99.90;;;;;;5102418;28;20830;-53
2022/05/17 09:57:17;;;;;;;14.13;7.33;;;22.90;99.90;;;;;;5101953;28;20536;-53
2022/05/17 09:59:44;;;;;;;7.63;6.83;;;23.40;99.90;;;;;;5103072;27;20772;-53
2022/05/17 10:02:34;;;;;;;10.23;7.90;;;23.60;99.90;;;;;;5102455;28;20434;-52
2022/05/17 10:05:09;;;;;;;7.13;6.37;;;23.30;99.90;;;;;;5102690;28;20768;-52
2022/05/17 10:07:35;;;;;;;8.20;6.33;;;23.00;99.90;;;;;;5101460;28;20919;-53
2022/05/17 10:10:27;;;;;;;7.50;6.63;;;22.50;99.90;;;;;;5099996;28;20562;-53
2022/05/17 10:12:56;;;;;;;8.80;7.10;;;22.50;99.90;;;;;;5101582;27;20526;-53
2022/05/17 10:15:23;;;;;;;7.43;6.73;;;22.40;99.90;;;;;;5100762;27;21230;-54
2022/05/17 10:18:00;;;;;;;7.87;6.30;;;22.70;99.90;;;;;;5102965;28;21124;-53
2022/05/17 10:20:35;;;;;;;7.40;6.60;;;22.90;99.90;;;;;;5106773;27;20469;-54
2022/05/17 10:23:38;;;;;;;8.10;7.03;;;22.90;99.90;;;;;;5105482;28;20434;-53
2022/05/17 10:26:15;;;;;;;7.73;6.70;;;22.70;99.90;;;;;;5076294;27;20924;-53
2022/05/17 10:29:09;;;;;;;7.27;6.17;;;22.10;99.90;;;;;;5100835;28;20451;-53
2022/05/17 10:31:52;;;;;;;7.23;6.50;;;21.70;99.90;;;;;;5097792;28;20476;-52
2022/05/17 10:34:48;;;;;;;8.00;5.70;;;21.40;99.90;;;;;;5107973;28;20474;-52
2022/05/17 10:37:19;;;;;;;7.93;4.50;;;21.20;99.90;;;;;;5102472;28;20458;-53
2022/05/17 10:40:07;;;;;;;6.23;4.73;;;21.10;99.90;;;;;;5099382;28;20833;-51
2022/05/17 10:42:34;;;;;;;5.23;4.80;;;20.80;99.90;;;;;;5105338;28;21163;-53
2022/05/17 10:44:59;;;;;;;4.50;4.10;;;20.50;99.90;;;;;;5105591;28;21199;-52
2022/05/17 10:47:47;;;;;;;6.03;5.00;;;20.40;99.90;;;;;;5102075;27;20477;-52
2022/05/17 10:50:34;;;;;;;5.20;4.60;;;20.40;99.90;;;;;;5102705;28;20558;-52
2022/05/17 10:53:00;;;;;;;4.70;4.20;;;20.50;99.90;;;;;;5100170;27;20465;-52
2022/05/17 10:55:25;;;;;;;5.60;4.50;;;20.50;99.90;;;;;;5100781;28;20454;-52
2022/05/17 10:58:01;;;;;;;5.37;4.87;;;20.60;99.90;;;;;;5104807;28;20318;-52
2022/05/17 11:00:37;;;;;;;5.90;5.40;;;20.50;99.90;;;;;;5097392;28;20992;-53
2022/05/17 11:03:24;;;;;;;6.13;5.57;;;20.50;99.90;;;;;;5103672;28;20438;-52
2022/05/17 11:06:15;;;;;;;7.07;6.37;;;20.20;99.90;;;;;;5105995;28;20437;-52
2022/05/17 11:08:58;;;;;;;6.60;6.00;;;19.90;99.90;;;;;;5106423;28;20615;-52
2022/05/17 11:11:27;;;;;;;6.30;5.70;;;19.80;99.90;;;;;;5099172;28;20495;-52
2022/05/17 11:14:08;;;;;;;7.00;5.70;;;19.80;99.90;;;;;;5106497;28;20449;-52
2022/05/17 11:16:47;;;;;;;7.40;6.70;;;19.80;99.90;;;;;;5104000;28;20810;-53
2022/05/17 11:19:48;;;;;;;6.23;5.63;;;19.80;99.90;;;;;;5102933;28;20480;-52
2022/05/17 11:22:43;;;;;;;6.40;5.80;;;20.00;99.90;;;;;;5098391;28;20500;-52
2022/05/17 11:25:12;;;;;;;5.60;5.10;;;20.10;99.90;;;;;;5103305;28;20449;-53
2022/05/17 11:27:49;;;;;;;5.63;5.13;;;20.20;99.90;;;;;;5097806;28;20464;-53
2022/05/17 11:30:19;;;;;;;5.67;5.13;;;20.10;99.90;;;;;;5098614;28;20445;-53
2022/05/17 11:33:09;;;;;;;7.77;5.50;;;20.20;99.90;;;;;;5105772;28;20442;-53
2022/05/17 11:35:38;;;;;;;6.43;5.80;;;20.20;99.90;;;;;;5106123;28;20454;-52
2022/05/17 11:38:16;;;;;;;8.10;6.90;;;20.30;99.90;;;;;;5093166;28;20458;-52
2022/05/17 11:40:52;;;;;;;7.60;6.90;;;20.30;99.90;;;;;;5104859;28;20449;-53
2022/05/17 11:43:41;;;;;;;7.57;6.43;;;20.30;99.90;;;;;;5097869;28;20461;-53
2022/05/17 11:46:28;;;;;;;6.97;6.37;;;20.30;99.90;;;;;;5105244;28;20438;-52
2022/05/17 11:48:59;;;;;;;12.93;6.50;;;20.20;99.90;;;;;;5104970;28;20429;-53
2022/05/17 11:51:30;;;;;;;8.43;7.63;;;20.00;99.90;;;;;;5102201;28;20437;-53
2022/05/17 11:53:56;;;;;;;9.90;8.00;;;20.00;99.90;;;;;;5097649;28;20928;-53
2022/05/17 11:56:24;;;;;;;8.13;7.13;;;20.00;99.90;;;;;;5105218;28;20452;-53
2022/05/17 11:58:59;;;;;;;8.40;7.10;;;19.90;99.90;;;;;;5108886;28;20571;-54
2022/05/17 12:01:31;;;;;;;8.40;7.53;;;19.90;99.90;;;;;;5107077;28;20426;-53
2022/05/17 12:03:57;;;;;;;8.80;7.90;;;19.70;99.90;;;;;;5105552;28;20426;-53
2022/05/17 12:06:48;;;;;;;9.20;7.40;;;19.70;99.90;;;;;;5095175;28;20775;-53
2022/05/17 12:09:20;;;;;;;7.83;6.50;;;19.80;99.90;;;;;;5095192;28;20786;-53
2022/05/17 12:11:52;;;;;;;6.40;5.80;;;19.80;99.90;;;;;;5100963;28;20434;-53
2022/05/17 12:14:39;;;;;;;6.17;5.53;;;19.80;99.90;;;;;;5108404;28;20425;-53
2022/05/17 12:17:29;;;;;;;6.90;6.20;;;19.70;99.90;;;;;;5098915;27;20473;-53
2022/05/17 12:20:01;;;;;;;7.90;6.23;;;19.60;99.90;;;;;;5104696;28;20511;-53
2022/05/17 12:22:38;;;;;;;7.67;6.97;;;19.50;99.90;;;;;;5098441;28;20431;-54
2022/05/17 12:25:24;;;;;;;9.13;7.03;;;19.40;99.90;;;;;;5109099;27;20450;-53
2022/05/17 12:27:50;;;;;;;7.10;6.50;;;19.30;99.90;;;;;;5105225;27;20442;-53
2022/05/17 12:33:10;;;;;;;7.83;7.03;;;19.30;99.90;;;;;;5100675;28;20211;-53
2022/05/17 12:35:36;;;;;;;7.40;6.70;;;19.30;99.90;;;;;;5104557;27;21372;-53
2022/05/17 12:38:01;;;;;;;6.47;5.87;;;19.40;99.90;;;;;;5100829;28;20476;-53
2022/05/17 12:43:22;;;;;;;6.00;5.40;;;19.40;99.90;;;;;;5105124;28;20199;-53
2022/05/17 12:45:49;;;;;;;6.60;5.60;;;19.60;99.90;;;;;;5101873;28;20814;-53
2022/05/17 12:48:25;;;;;;;5.50;5.00;;;19.60;99.90;;;;;;5106885;28;20444;-53
2022/05/17 12:50:53;;;;;;;5.83;5.23;;;19.70;99.90;;;;;;5104217;28;20421;-53
2022/05/17 12:53:28;;;;;;;7.40;6.70;;;19.70;99.90;;;;;;5101116;28;20448;-53
2022/05/17 12:56:32;;;;;;;6.00;5.50;;;19.70;99.90;;;;;;5107503;27;20507;-53
2022/05/17 12:59:05;;;;;;;6.03;5.50;;;19.60;99.90;;;;;;5106407;28;20469;-53
2022/05/17 13:01:42;;;;;;;5.90;5.40;;;19.50;99.90;;;;;;5101316;28;20513;-53
2022/05/17 13:04:16;;;;;;;6.73;6.00;;;19.40;99.90;;;;;;5109436;28;20448;-53
2022/05/17 13:06:46;;;;;;;5.90;5.30;;;19.30;99.90;;;;;;5101201;27;20529;-53
2022/05/17 13:09:24;;;;;;;6.77;6.17;;;19.30;99.90;;;;;;5098696;27;20477;-53
2022/05/17 13:11:56;;;;;;;8.20;7.40;;;19.20;99.90;;;;;;5095074;27;20910;-53
2022/05/17 13:14:31;;;;;;;9.33;7.00;;;19.30;99.90;;;;;;5104923;28;20431;-53